Time;durP1;ratioP1;P1;durP2;ratioP2;P2;SDS_P1;SDS_P2;PMS_P1;PMS_P2;Temp;Humidity;BMP_temperature;BMP_pressure;BME280_temperature;BME280_humidity;BME280_pressure;Samples;Min_cycle;Max_cycle;Signal;HPM_P1;HPM_P2
2023/06/20 00:00:04;;;;;;;8.00;6.30;;;;;;;25.51;46.19;101116.75;5033818;28;20041;-68
2023/06/20 00:02:29;;;;;;;8.25;5.97;;;;;;;25.52;45.98;101116.59;5033697;28;20148;-67
2023/06/20 00:04:55;;;;;;;8.40;6.47;;;;;;;25.50;45.81;101118.59;5033912;28;20112;-68
2023/06/20 00:07:20;;;;;;;8.07;6.47;;;;;;;25.50;46.20;101112.41;5034084;28;20269;-71
2023/06/20 00:09:45;;;;;;;8.20;6.53;;;;;;;25.51;45.81;101106.06;5033313;28;20290;-69
2023/06/20 00:12:11;;;;;;;8.87;6.57;;;;;;;25.51;45.87;101109.56;5033589;28;20362;-69
2023/06/20 00:14:37;;;;;;;7.70;6.35;;;;;;;25.51;46.17;101114.09;5033729;28;20301;-70
2023/06/20 00:17:03;;;;;;;8.95;6.28;;;;;;;25.51;45.90;101106.06;5033229;28;20053;-70
2023/06/20 00:19:28;;;;;;;7.70;6.18;;;;;;;25.49;45.89;101108.09;5033229;28;20071;-70
2023/06/20 00:21:53;;;;;;;7.77;6.10;;;;;;;25.49;45.61;101100.09;5033111;28;20044;-70
2023/06/20 00:24:18;;;;;;;7.83;5.70;;;;;;;25.51;46.19;101106.06;5033637;28;20355;-68
2023/06/20 00:26:44;;;;;;;8.23;6.17;;;;;;;25.49;46.00;101100.09;5033487;28;20262;-70
2023/06/20 00:29:09;;;;;;;8.15;6.05;;;;;;;25.49;45.93;101105.41;5033507;28;20368;-69
2023/06/20 00:31:36;;;;;;;9.60;6.10;;;;;;;25.48;46.17;101103.75;5033178;28;20086;-70
2023/06/20 00:34:01;;;;;;;6.80;5.40;;;;;;;25.49;46.20;101100.91;5033394;28;20065;-69
2023/06/20 00:36:26;;;;;;;9.27;6.10;;;;;;;25.48;45.98;101095.75;5032504;28;20060;-70
2023/06/20 00:38:53;;;;;;;8.30;6.83;;;;;;;25.43;45.97;101088.22;5033180;28;20470;-70
2023/06/20 00:41:21;;;;;;;7.20;6.25;;;;;;;25.47;46.01;101096.75;5032909;28;20266;-69
2023/06/20 00:43:48;;;;;;;8.95;6.18;;;;;;;25.49;46.01;101102.75;5033291;28;20041;-69
2023/06/20 00:46:16;;;;;;;8.32;5.78;;;;;;;25.48;46.01;101103.75;5032962;28;20028;-69
2023/06/20 00:48:42;;;;;;;8.63;5.93;;;;;;;25.47;46.04;101100.25;5033020;28;20591;-69
2023/06/20 00:51:08;;;;;;;7.43;6.30;;;;;;;25.48;45.89;101098.41;5032753;28;20040;-69
2023/06/20 00:53:33;;;;;;;8.13;6.15;;;;;;;25.44;46.06;101092.59;5032984;28;20041;-69
2023/06/20 00:55:59;;;;;;;7.20;6.13;;;;;;;25.45;46.13;101093.41;5032303;28;20033;-70
2023/06/20 00:58:24;;;;;;;7.53;5.82;;;;;;;25.45;45.68;101093.41;5032890;28;20466;-69
2023/06/20 01:00:50;;;;;;;6.97;5.97;;;;;;;25.47;46.17;101088.75;5032732;28;20393;-69
2023/06/20 01:03:15;;;;;;;9.35;6.20;;;;;;;25.47;45.93;101083.41;5033280;28;20040;-70
2023/06/20 01:05:53;;;;;;;7.57;6.13;;;;;;;25.43;46.34;101076.75;5032699;28;20030;-69
2023/06/20 01:08:39;;;;;;;7.13;5.88;;;;;;;25.43;46.23;101079.41;5032721;28;20045;-68
2023/06/20 01:11:15;;;;;;;7.55;6.22;;;;;;;25.45;45.88;101080.91;5032559;28;20069;-70
2023/06/20 01:13:50;;;;;;;7.90;5.82;;;;;;;25.41;45.86;101076.91;5032637;28;20067;-70
2023/06/20 01:16:29;;;;;;;8.70;5.93;;;;;;;25.42;45.84;101073.25;5032054;28;20456;-69
2023/06/20 01:19:03;;;;;;;7.38;5.90;;;;;;;25.44;45.91;101083.75;5031904;28;20091;-70
2023/06/20 01:21:35;;;;;;;7.07;6.03;;;;;;;25.41;45.55;101076.91;5032587;28;20048;-69
2023/06/20 01:24:09;;;;;;;7.47;6.30;;;;;;;25.42;46.28;101075.91;5032744;28;20064;-69
2023/06/20 01:26:40;;;;;;;;;;;;;;;25.53;45.60;101077.38;5032665;28;20041;-70
2023/06/20 01:29:24;;;;;;;7.07;5.68;;;;;;;25.48;45.58;101074.41;5031899;28;20025;-70
2023/06/20 01:31:52;;;;;;;;;;;;;;;25.55;45.63;101075.41;5032975;28;20037;-68
2023/06/20 01:34:26;;;;;;;8.43;6.07;;;;;;;25.50;45.79;101069.72;5032567;28;19912;-70
2023/06/20 01:36:55;;;;;;;6.80;5.65;;;;;;;25.48;45.74;101067.22;5032033;28;20739;-69
2023/06/20 01:39:32;;;;;;;7.15;5.70;;;;;;;25.44;45.71;101073.09;5032508;28;20037;-68
2023/06/20 01:42:03;;;;;;;9.43;6.40;;;;;;;25.41;45.64;101063.56;5031998;28;20041;-69
2023/06/20 01:44:30;;;;;;;7.75;6.45;;;;;;;25.44;45.59;101059.75;5031865;28;20091;-69
2023/06/20 01:46:58;;;;;;;7.07;6.07;;;;;;;25.42;45.85;101053.72;5032283;28;20060;-69
2023/06/20 01:49:25;;;;;;;7.78;5.85;;;;;;;25.42;45.89;101048.38;5031305;28;20037;-69
2023/06/20 01:51:55;;;;;;;8.57;6.40;;;;;;;25.41;45.77;101047.56;5031952;28;20124;-70
2023/06/20 01:54:22;;;;;;;7.13;6.18;;;;;;;25.39;45.96;101041.56;5031956;28;20036;-71
2023/06/20 01:56:49;;;;;;;7.75;6.35;;;;;;;25.38;45.98;101050.56;5031301;28;20044;-68
2023/06/20 01:59:15;;;;;;;7.70;6.00;;;;;;;25.40;45.78;101040.53;5030994;28;20028;-70
2023/06/20 02:01:42;;;;;;;6.97;5.60;;;;;;;25.38;45.67;101042.56;5031900;28;20029;-69
2023/06/20 02:04:09;;;;;;;7.35;5.70;;;;;;;25.40;45.54;101045.88;5031072;28;20044;-70
2023/06/20 02:06:37;;;;;;;8.05;6.20;;;;;;;25.38;45.68;101044.41;5031679;28;20143;-69
2023/06/20 02:09:04;;;;;;;7.70;5.85;;;;;;;25.36;45.62;101039.25;5030895;28;20472;-69
2023/06/20 02:11:30;;;;;;;7.38;5.72;;;;;;;25.39;45.58;101038.03;5031953;28;20056;-71
2023/06/20 02:13:55;;;;;;;7.65;5.90;;;;;;;25.40;45.36;101045.06;5032560;28;20077;-69
2023/06/20 02:16:21;;;;;;;7.20;5.80;;;;;;;25.39;45.81;101038.03;5032444;28;20766;-70
2023/06/20 02:18:48;;;;;;;8.32;6.32;;;;;;;25.39;45.62;101038.03;5032901;28;20036;-69
2023/06/20 02:21:19;;;;;;;7.22;5.90;;;;;;;25.36;45.64;101036.56;5032782;28;20043;-69
2023/06/20 02:23:49;;;;;;;7.70;6.03;;;;;;;25.36;45.49;101033.91;5031394;28;20047;-69
2023/06/20 02:26:17;;;;;;;7.50;5.82;;;;;;;25.37;45.57;101035.53;5032382;28;20052;-69
2023/06/20 02:28:45;;;;;;;7.38;6.05;;;;;;;25.37;45.41;101040.06;5031277;28;20477;-70
2023/06/20 02:31:16;;;;;;;7.80;5.80;;;;;;;25.37;45.70;101040.88;5031433;28;20051;-70
2023/06/20 02:33:43;;;;;;;6.72;5.63;;;;;;;25.39;45.24;101040.72;5031379;28;20470;-68
2023/06/20 02:36:09;;;;;;;8.10;6.03;;;;;;;25.39;45.49;101043.38;5030970;28;20045;-69
2023/06/20 02:38:34;;;;;;;7.72;5.63;;;;;;;25.37;45.36;101045.41;5030625;28;20040;-69
2023/06/20 02:41:00;;;;;;;7.43;6.25;;;;;;;25.36;45.34;101039.25;5031178;28;20033;-68
2023/06/20 02:43:25;;;;;;;8.67;6.30;;;;;;;25.35;45.58;101043.72;5031123;28;20061;-68
2023/06/20 02:45:57;;;;;;;7.75;5.95;;;;;;;25.35;45.57;101037.56;5031460;28;20277;-68
2023/06/20 02:49:04;;;;;;;7.22;5.82;;;;;;;25.38;45.35;101042.56;5030390;28;20482;-69
2023/06/20 02:51:36;;;;;;;7.60;6.10;;;;;;;25.37;45.19;101034.72;4996226;28;20076;-70
2023/06/20 02:54:12;;;;;;;8.68;6.05;;;;;;;25.37;45.35;101040.06;5029989;28;20064;-71
2023/06/20 02:56:41;;;;;;;7.30;5.90;;;;;;;25.35;45.89;101038.38;5030704;28;20117;-68
2023/06/20 02:59:07;;;;;;;7.47;6.00;;;;;;;25.35;45.55;101038.38;5031264;28;20067;-68
2023/06/20 03:01:38;;;;;;;7.20;5.78;;;;;;;25.35;45.43;101041.06;5034154;28;20927;-68
2023/06/20 03:04:04;;;;;;;7.70;5.97;;;;;;;25.35;45.14;101027.72;5034948;28;20072;-68
2023/06/20 03:06:31;;;;;;;7.03;5.78;;;;;;;25.34;45.62;101033.22;5034768;28;20053;-70
2023/06/20 03:08:59;;;;;;;7.93;6.28;;;;;;;25.32;45.40;101025.38;5034937;28;20029;-69
2023/06/20 03:11:25;;;;;;;7.95;6.35;;;;;;;25.33;45.20;101024.38;5034609;28;20060;-70
2023/06/20 03:13:51;;;;;;;8.88;6.00;;;;;;;25.35;45.29;101024.22;5034359;28;20042;-68
2023/06/20 03:16:16;;;;;;;7.75;6.28;;;;;;;25.33;45.38;101019.06;5034369;28;20103;-71
2023/06/20 03:18:41;;;;;;;7.13;5.63;;;;;;;25.34;45.20;101020.72;5034488;28;20053;-69
2023/06/20 03:21:07;;;;;;;6.40;5.57;;;;;;;25.36;45.29;101025.91;5035017;28;20065;-70
2023/06/20 03:23:32;;;;;;;7.60;5.70;;;;;;;25.31;45.13;101017.53;5034580;28;20532;-71
2023/06/20 03:25:59;;;;;;;8.32;5.70;;;;;;;25.33;45.01;101028.91;5034600;28;20053;-69
2023/06/20 03:28:25;;;;;;;7.53;5.55;;;;;;;25.32;45.30;101030.72;5034257;28;20040;-68
2023/06/20 03:30:51;;;;;;;7.22;5.60;;;;;;;25.34;45.16;101031.41;5034141;28;20033;-67
2023/06/20 03:33:16;;;;;;;8.45;6.00;;;;;;;25.33;45.00;101028.91;5033836;28;20529;-68
2023/06/20 03:35:41;;;;;;;7.93;6.17;;;;;;;25.30;45.40;101027.38;5033244;28;20040;-70
2023/06/20 03:38:07;;;;;;;7.05;5.80;;;;;;;25.32;45.13;101041.38;5034377;28;20977;-69
2023/06/20 03:40:32;;;;;;;7.10;5.83;;;;;;;25.32;45.02;101044.06;5034075;28;20044;-69
2023/06/20 03:42:57;;;;;;;7.97;5.93;;;;;;;25.33;45.01;101048.41;5032982;28;20275;-69
2023/06/20 03:45:23;;;;;;;8.35;6.07;;;;;;;25.31;44.97;101055.75;5033866;28;20254;-68
2023/06/20 03:47:48;;;;;;;7.50;6.00;;;;;;;25.32;45.21;101060.06;5035057;28;20040;-70
2023/06/20 03:50:14;;;;;;;7.75;5.90;;;;;;;25.30;45.12;101055.91;5034244;28;20039;-70
2023/06/20 03:52:39;;;;;;;7.35;5.68;;;;;;;25.32;45.24;101065.38;5034111;28;20048;-69
2023/06/20 03:55:05;;;;;;;6.57;5.60;;;;;;;25.31;44.89;101063.75;5033847;28;20032;-68
2023/06/20 03:57:30;;;;;;;7.72;5.95;;;;;;;25.29;45.00;101068.41;5034041;28;20029;-70
2023/06/20 03:59:55;;;;;;;8.52;6.18;;;;;;;25.32;44.90;101068.06;5034417;28;20620;-70
2023/06/20 04:02:21;;;;;;;8.40;5.93;;;;;;;25.29;44.94;101065.75;5033904;28;20559;-69
2023/06/20 04:04:49;;;;;;;7.10;5.77;;;;;;;25.30;44.75;101064.72;5033331;28;20414;-69
2023/06/20 04:07:18;;;;;;;7.80;6.30;;;;;;;25.30;45.12;101074.56;5034400;28;20060;-71
2023/06/20 04:09:44;;;;;;;7.03;5.80;;;;;;;25.29;44.88;101067.56;5033461;28;20602;-69
2023/06/20 04:12:10;;;;;;;7.45;6.15;;;;;;;25.30;45.26;101064.72;5034013;28;20030;-69
2023/06/20 04:14:35;;;;;;;7.93;6.18;;;;;;;25.28;45.05;101061.41;5033759;28;20029;-69
2023/06/20 04:17:00;;;;;;;8.13;6.33;;;;;;;25.28;45.22;101060.59;5033282;28;20124;-68
2023/06/20 04:19:25;;;;;;;7.68;6.07;;;;;;;25.30;44.94;101061.25;5033839;28;20293;-70
2023/06/20 04:21:51;;;;;;;7.90;5.97;;;;;;;25.30;45.10;101056.72;5033356;28;20030;-70
2023/06/20 04:24:16;;;;;;;9.87;6.13;;;;;;;25.30;44.90;101053.25;5033413;28;20622;-70
2023/06/20 04:26:41;;;;;;;7.83;6.27;;;;;;;25.29;45.11;101040.91;5033305;28;20365;-68
2023/06/20 04:29:06;;;;;;;7.43;6.20;;;;;;;25.27;44.90;101041.03;5040323;28;20282;-69
2023/06/20 04:31:32;;;;;;;7.93;6.60;;;;;;;25.29;45.12;101036.41;5032889;28;20746;-69
2023/06/20 04:33:57;;;;;;;7.88;6.43;;;;;;;25.27;45.14;101038.38;5033062;28;20037;-70
2023/06/20 04:36:23;;;;;;;7.37;5.80;;;;;;;25.28;44.90;101034.72;5031842;28;20045;-70
2023/06/20 04:38:48;;;;;;;7.45;6.28;;;;;;;25.28;45.28;101033.91;5033578;28;21141;-68
2023/06/20 04:41:14;;;;;;;7.90;6.40;;;;;;;25.27;45.37;101038.38;5033040;28;20038;-69
2023/06/20 04:43:39;;;;;;;8.07;6.57;;;;;;;25.27;45.34;101034.88;5033823;28;20282;-69
2023/06/20 04:46:04;;;;;;;9.05;6.22;;;;;;;25.28;44.72;101031.25;5033306;28;20258;-71
2023/06/20 04:48:35;;;;;;;7.90;6.10;;;;;;;25.28;45.22;101025.91;5033333;28;20049;-68
2023/06/20 04:51:00;;;;;;;8.07;6.28;;;;;;;25.27;45.47;101025.03;5033186;28;20041;-68
2023/06/20 04:53:28;;;;;;;9.48;6.40;;;;;;;25.27;45.35;101025.03;5031418;28;20485;-70
2023/06/20 04:55:55;;;;;;;7.82;6.00;;;;;;;25.27;45.16;101027.69;5033798;28;20120;-69
2023/06/20 04:58:20;;;;;;;6.75;5.75;;;;;;;25.20;45.34;101024.03;5032545;28;20397;-68
2023/06/20 05:00:45;;;;;;;7.38;5.95;;;;;;;25.27;45.20;101027.69;5032985;28;20048;-71
2023/06/20 05:03:11;;;;;;;9.32;6.43;;;;;;;25.28;45.36;101023.25;5033196;28;20975;-68
2023/06/20 05:05:36;;;;;;;8.02;6.45;;;;;;;25.27;45.25;101024.19;5032964;28;20466;-69
2023/06/20 05:08:01;;;;;;;7.60;6.35;;;;;;;25.28;45.30;101015.25;5032893;28;20033;-69
2023/06/20 05:10:27;;;;;;;6.97;6.05;;;;;;;25.27;45.48;101008.19;5031879;28;20036;-68
2023/06/20 05:12:52;;;;;;;7.00;5.82;;;;;;;25.27;45.49;101011.69;5032224;28;20481;-68
2023/06/20 05:15:23;;;;;;;8.25;6.10;;;;;;;25.28;45.33;101000.06;5032740;28;20045;-68
2023/06/20 05:17:50;;;;;;;8.52;6.68;;;;;;;25.28;45.57;101000.06;5031188;28;20060;-67
2023/06/20 05:20:15;;;;;;;8.10;6.28;;;;;;;25.29;45.55;100995.56;5032836;28;20124;-68
2023/06/20 05:22:41;;;;;;;7.45;5.95;;;;;;;25.25;45.54;100996.88;5032549;28;20175;-68
2023/06/20 05:25:06;;;;;;;9.52;6.10;;;;;;;25.27;45.44;100997.53;5032297;28;20040;-68
2023/06/20 05:27:31;;;;;;;8.50;6.45;;;;;;;25.27;45.84;100990.34;5032137;28;20061;-66
2023/06/20 05:29:57;;;;;;;8.10;6.28;;;;;;;25.29;45.68;100996.41;5032719;28;20044;-68
2023/06/20 05:32:22;;;;;;;7.40;6.20;;;;;;;25.31;45.79;100994.41;5033259;28;20090;-68
2023/06/20 05:34:47;;;;;;;7.53;5.93;;;;;;;25.29;45.64;100988.41;5031314;28;20271;-68
2023/06/20 05:37:13;;;;;;;7.25;5.78;;;;;;;25.29;45.86;100983.06;5032152;28;20061;-69
2023/06/20 05:39:38;;;;;;;6.77;5.60;;;;;;;25.30;45.89;100981.22;5031148;28;20465;-70
2023/06/20 05:42:04;;;;;;;7.87;5.50;;;;;;;25.30;45.95;100981.22;5031657;28;20358;-69
2023/06/20 05:44:29;;;;;;;6.13;5.30;;;;;;;25.30;45.82;100984.72;5031093;28;20266;-68
2023/06/20 05:46:54;;;;;;;6.85;5.45;;;;;;;25.32;46.09;100980.03;5031844;28;20033;-68
2023/06/20 05:49:21;;;;;;;7.37;5.70;;;;;;;25.31;46.08;100986.38;5031727;28;20029;-71
2023/06/20 05:51:47;;;;;;;6.88;5.43;;;;;;;25.33;46.06;100995.03;5031392;28;20274;-71
2023/06/20 05:54:13;;;;;;;7.60;5.30;;;;;;;25.34;46.08;100995.88;5031421;28;20091;-67
2023/06/20 05:56:38;;;;;;;7.53;5.22;;;;;;;25.33;46.46;100996.91;5031004;28;20433;-68
2023/06/20 05:59:04;;;;;;;6.20;4.90;;;;;;;25.33;48.04;101005.72;5031482;28;20458;-69
2023/06/20 06:01:29;;;;;;;6.22;4.28;;;;;;;25.30;48.50;101014.06;5032230;28;20029;-67
2023/06/20 06:03:55;;;;;;;5.45;3.95;;;;;;;25.22;48.67;101008.69;5032740;28;20445;-68
2023/06/20 06:06:21;;;;;;;5.70;4.10;;;;;;;25.20;49.42;101007.19;5031435;28;20033;-73
2023/06/20 06:08:46;;;;;;;5.72;3.75;;;;;;;25.13;49.87;101007.03;5030763;28;20083;-68
2023/06/20 06:11:12;;;;;;;5.45;4.10;;;;;;;25.12;50.44;101018.72;5032015;28;20068;-67
2023/06/20 06:13:39;;;;;;;6.28;4.30;;;;;;;25.08;50.05;101017.38;5031328;28;20032;-67
2023/06/20 06:16:05;;;;;;;8.43;4.10;;;;;;;25.08;50.37;101017.38;5031661;28;20060;-68
2023/06/20 06:18:30;;;;;;;5.70;4.05;;;;;;;25.05;50.17;101012.38;5032197;28;20045;-69
2023/06/20 06:20:55;;;;;;;6.30;4.28;;;;;;;25.03;50.34;101019.72;5030737;28;20035;-68
2023/06/20 06:23:21;;;;;;;8.57;4.18;;;;;;;24.97;50.64;100999.88;5031364;28;20520;-68
2023/06/20 06:25:46;;;;;;;7.57;4.33;;;;;;;24.99;51.00;101000.53;5030454;28;20405;-67
2023/06/20 06:28:12;;;;;;;6.40;4.00;;;;;;;24.99;51.15;100998.72;5031181;28;20315;-67
2023/06/20 06:30:37;;;;;;;7.13;4.97;;;;;;;24.99;50.94;101001.38;5030524;28;20048;-69
2023/06/20 06:33:03;;;;;;;6.18;4.30;;;;;;;24.99;51.32;100996.03;5030616;28;20583;-70
2023/06/20 06:35:30;;;;;;;7.25;4.57;;;;;;;24.98;51.27;101002.38;5029696;28;20048;-68
2023/06/20 06:37:57;;;;;;;7.18;4.90;;;;;;;25.00;51.36;101010.19;5030995;28;20037;-67
2023/06/20 06:40:22;;;;;;;5.70;4.45;;;;;;;24.97;51.01;101006.03;5030960;28;20033;-67
2023/06/20 06:42:48;;;;;;;6.30;4.32;;;;;;;24.99;51.10;101008.53;5030461;28;20145;-67
2023/06/20 06:45:13;;;;;;;7.47;4.53;;;;;;;24.99;51.48;101004.03;5031049;28;20037;-67
2023/06/20 06:47:38;;;;;;;7.22;4.57;;;;;;;24.99;51.25;100998.72;5031228;28;20136;-67
2023/06/20 06:50:04;;;;;;;6.63;4.63;;;;;;;24.99;51.82;100996.03;5031167;28;20036;-67
2023/06/20 06:52:30;;;;;;;7.07;4.82;;;;;;;24.99;51.59;100997.84;5031681;28;20029;-67
2023/06/20 06:54:55;;;;;;;6.38;4.85;;;;;;;24.99;51.47;101004.03;5030911;28;20033;-68
2023/06/20 06:57:21;;;;;;;10.82;4.78;;;;;;;25.02;51.31;101004.69;5029489;28;20124;-68
2023/06/20 06:59:46;;;;;;;7.40;5.00;;;;;;;25.03;51.57;101003.72;5031275;28;20111;-68
2023/06/20 07:02:13;;;;;;;7.97;5.50;;;;;;;25.03;51.58;101001.06;5029531;28;20033;-67
2023/06/20 07:04:39;;;;;;;6.63;4.97;;;;;;;25.05;51.52;101004.38;5030413;28;20042;-67
2023/06/20 07:07:04;;;;;;;6.68;4.70;;;;;;;25.04;51.35;101002.69;5030551;28;20091;-68
2023/06/20 07:09:30;;;;;;;6.82;5.13;;;;;;;25.03;51.49;100996.53;5030765;28;20461;-68
2023/06/20 07:11:55;;;;;;;8.25;5.90;;;;;;;25.02;51.50;100991.38;5032397;28;20028;-67
2023/06/20 07:14:21;;;;;;;7.82;5.50;;;;;;;25.06;51.79;100998.88;5030807;28;20047;-67
2023/06/20 07:16:46;;;;;;;7.60;5.47;;;;;;;25.07;51.61;100991.69;5030414;28;20097;-67
2023/06/20 07:19:11;;;;;;;6.55;5.13;;;;;;;25.06;51.22;100992.72;5031864;28;20278;-68
2023/06/20 07:21:36;;;;;;;8.23;5.97;;;;;;;25.09;51.28;100992.38;5030964;28;20397;-66
2023/06/20 07:24:02;;;;;;;6.93;5.30;;;;;;;25.06;51.39;100990.88;5030566;28;20262;-67
2023/06/20 07:26:27;;;;;;;7.47;5.18;;;;;;;25.09;51.57;100987.06;5031001;28;20288;-67
2023/06/20 07:28:52;;;;;;;7.00;5.40;;;;;;;25.05;51.41;100981.19;5031376;28;20044;-68
2023/06/20 07:31:19;;;;;;;6.97;4.83;;;;;;;25.10;51.32;100983.38;5027933;28;20306;-67
2023/06/20 07:33:44;;;;;;;6.97;5.03;;;;;;;25.11;51.36;100977.03;5029341;28;20313;-67
2023/06/20 07:36:10;;;;;;;7.63;4.68;;;;;;;25.16;51.48;100974.69;5030289;28;20083;-68
2023/06/20 07:38:35;;;;;;;6.68;4.65;;;;;;;25.16;51.46;100974.69;5029389;28;20041;-68
2023/06/20 07:41:00;;;;;;;6.07;4.67;;;;;;;25.21;51.14;100969.69;5029645;28;20065;-69
2023/06/20 07:43:25;;;;;;;6.10;4.15;;;;;;;25.25;51.35;100967.53;5030507;28;20289;-70
2023/06/20 07:45:51;;;;;;;5.90;4.50;;;;;;;25.29;51.12;100968.88;5029696;28;20065;-72
2023/06/20 07:48:17;;;;;;;8.35;4.60;;;;;;;25.31;50.86;100986.38;5032756;28;20469;-69
2023/06/20 07:50:42;;;;;;;6.47;4.53;;;;;;;25.33;50.58;100988.88;5033237;28;20116;-66
2023/06/20 07:53:07;;;;;;;6.82;4.53;;;;;;;25.38;50.59;100997.22;5033348;28;20509;-66
2023/06/20 07:55:33;;;;;;;6.10;4.20;;;;;;;25.40;50.78;100994.38;5033915;28;20109;-67
2023/06/20 07:57:58;;;;;;;5.82;3.97;;;;;;;25.41;50.57;100991.53;5033253;28;20281;-69
2023/06/20 08:00:24;;;;;;;6.68;4.13;;;;;;;25.42;50.66;100989.69;5032788;28;20047;-69
2023/06/20 08:02:51;;;;;;;6.85;4.03;;;;;;;25.44;50.05;100983.19;5034061;28;20055;-71
2023/06/20 08:05:16;;;;;;;5.95;4.28;;;;;;;25.47;50.33;100987.38;5033663;28;20131;-68
2023/06/20 08:07:41;;;;;;;5.80;4.17;;;;;;;25.49;50.09;100982.69;5032740;28;20124;-69
2023/06/20 08:10:10;;;;;;;6.17;4.10;;;;;;;25.49;49.96;100974.69;5033005;28;20281;-69
2023/06/20 08:12:35;;;;;;;6.97;3.97;;;;;;;25.53;50.25;100986.66;5032375;28;20794;-68
2023/06/20 08:15:00;;;;;;;6.82;4.07;;;;;;;25.59;50.07;100975.31;5033711;28;20115;-68
2023/06/20 08:17:25;;;;;;;5.90;3.90;;;;;;;25.64;49.79;100980.13;5032264;28;20110;-69
2023/06/20 08:19:51;;;;;;;7.13;3.53;;;;;;;25.61;50.06;100977.81;5033798;28;20305;-68
2023/06/20 08:22:16;;;;;;;5.47;3.50;;;;;;;25.69;49.65;100970.63;5034035;28;20316;-68
2023/06/20 08:24:41;;;;;;;5.17;3.50;;;;;;;25.73;49.46;100973.78;5033790;28;20034;-67
2023/06/20 08:27:06;;;;;;;5.27;3.53;;;;;;;25.78;49.51;100976.75;5033728;28;20250;-68
2023/06/20 08:29:32;;;;;;;7.15;3.25;;;;;;;25.80;49.10;100977.44;5030734;28;20729;-68
2023/06/20 08:31:57;;;;;;;6.07;3.30;;;;;;;25.77;49.37;100976.94;5033306;28;20025;-66
2023/06/20 08:34:22;;;;;;;5.13;3.10;;;;;;;25.77;49.26;100983.13;5032843;28;20402;-66
2023/06/20 08:36:47;;;;;;;5.10;3.30;;;;;;;25.76;49.39;100983.28;5032767;28;20269;-66
2023/06/20 08:39:13;;;;;;;4.30;3.23;;;;;;;25.75;49.09;100986.94;5032386;28;20060;-66
2023/06/20 08:41:38;;;;;;;6.43;2.97;;;;;;;25.74;49.46;100975.44;5032795;28;20653;-65
2023/06/20 08:44:04;;;;;;;6.38;3.40;;;;;;;25.72;49.36;100974.78;5031774;28;20357;-67
2023/06/20 08:46:31;;;;;;;5.70;3.25;;;;;;;25.74;49.48;100979.94;5032074;28;20033;-67
2023/06/20 08:48:57;;;;;;;5.63;3.50;;;;;;;25.71;49.43;100971.28;5032640;28;20056;-67
2023/06/20 08:51:26;;;;;;;5.25;3.50;;;;;;;25.73;49.25;100979.13;5032482;28;20037;-67
2023/06/20 08:53:54;;;;;;;6.13;3.45;;;;;;;25.75;49.14;100979.78;5032043;28;20039;-67
2023/06/20 08:56:20;;;;;;;5.95;3.10;;;;;;;25.77;49.21;100968.91;5032425;28;20029;-68
2023/06/20 08:58:45;;;;;;;6.00;3.10;;;;;;;25.79;49.31;100964.25;5031123;28;20025;-67
2023/06/20 09:01:11;;;;;;;6.83;3.33;;;;;;;25.78;48.75;100960.75;5031966;28;20033;-67
2023/06/20 09:03:37;;;;;;;4.90;3.20;;;;;;;25.79;49.12;100954.41;5030709;28;20295;-69
2023/06/20 09:06:03;;;;;;;5.30;3.38;;;;;;;25.83;49.05;100963.72;5032152;28;20041;-68
2023/06/20 09:08:39;;;;;;;4.78;3.30;;;;;;;25.84;49.06;100967.25;5031814;28;20252;-71
2023/06/20 09:11:09;;;;;;;5.25;3.03;;;;;;;25.87;48.81;100962.38;5032794;28;20064;-69
2023/06/20 09:13:34;;;;;;;5.78;3.47;;;;;;;25.89;48.41;100963.03;5030440;28;20029;-68
2023/06/20 09:16:18;;;;;;;6.22;3.47;;;;;;;25.85;48.77;100966.22;5030725;28;20039;-68
2023/06/20 09:18:49;;;;;;;7.83;3.30;;;;;;;25.86;48.73;100965.22;5030452;28;20045;-70
2023/06/20 09:21:18;;;;;;;7.18;3.35;;;;;;;25.88;48.81;100960.53;5032321;28;20037;-69
2023/06/20 09:23:43;;;;;;;5.70;3.53;;;;;;;25.83;48.87;100971.72;5031781;28;20059;-66
2023/06/20 09:26:14;;;;;;;4.60;2.88;;;;;;;25.84;48.77;100984.06;5031450;28;20334;-69
2023/06/20 09:28:39;;;;;;;6.57;3.15;;;;;;;25.83;48.77;100981.59;5032164;28;20033;-67
2023/06/20 09:31:05;;;;;;;4.75;2.78;;;;;;;25.89;48.71;100983.56;5031074;28;20040;-68
2023/06/20 09:33:30;;;;;;;4.53;2.88;;;;;;;25.92;48.84;100979.72;5030697;28;20049;-67
2023/06/20 09:36:18;;;;;;;8.23;3.33;;;;;;;25.91;49.26;100978.06;5031219;28;20034;-68
2023/06/20 09:38:44;;;;;;;5.90;3.10;;;;;;;25.90;48.72;100971.88;5032195;28;20602;-66
2023/06/20 09:41:14;;;;;;;10.27;3.17;;;;;;;25.89;48.95;100984.38;5030904;28;20078;-67
2023/06/20 09:43:39;;;;;;;7.55;3.53;;;;;;;25.89;49.01;100971.03;5031500;28;20508;-68
2023/06/20 09:46:04;;;;;;;6.07;3.27;;;;;;;25.92;49.22;100969.88;5031845;28;20025;-67
2023/06/20 09:48:32;;;;;;;5.53;3.00;;;;;;;25.93;49.22;100971.53;5030911;28;21121;-67
2023/06/20 09:50:59;;;;;;;5.57;2.92;;;;;;;25.95;49.08;100972.19;5030652;28;20053;-68
2023/06/20 09:53:36;;;;;;;5.38;3.00;;;;;;;25.89;49.26;100979.03;5031116;28;20072;-68
2023/06/20 09:56:02;;;;;;;8.05;3.00;;;;;;;25.94;49.56;100972.38;5031227;28;20072;-67
2023/06/20 09:58:29;;;;;;;6.28;3.10;;;;;;;25.94;49.38;100972.38;5030330;28;20033;-68
2023/06/20 10:00:56;;;;;;;4.93;3.03;;;;;;;25.96;49.41;100970.34;5031824;28;20091;-69
2023/06/20 10:03:22;;;;;;;5.93;3.20;;;;;;;25.97;49.35;100970.22;5030110;28;20268;-69
2023/06/20 10:05:47;;;;;;;5.05;3.47;;;;;;;25.97;49.23;100975.53;5030904;28;20039;-69
2023/06/20 10:08:17;;;;;;;8.77;2.90;;;;;;;25.97;49.07;100972.88;5031337;28;20115;-70
2023/06/20 10:10:42;;;;;;;9.40;3.10;;;;;;;25.97;49.29;100966.72;5030609;28;20029;-69
2023/06/20 10:13:08;;;;;;;6.90;2.97;;;;;;;25.98;48.94;100965.72;5029739;28;20040;-69
2023/06/20 10:15:34;;;;;;;4.93;3.00;;;;;;;25.97;48.76;100958.69;5030032;28;20281;-71
2023/06/20 10:17:59;;;;;;;7.38;2.85;;;;;;;25.94;49.00;100951.81;5031636;28;20100;-70
2023/06/20 10:20:27;;;;;;;5.30;3.10;;;;;;;25.95;48.89;100950.84;5031138;28;20107;-69
2023/06/20 10:23:00;;;;;;;5.18;3.05;;;;;;;25.93;49.26;100944.84;5031104;28;20742;-69
2023/06/20 10:25:27;;;;;;;4.53;2.87;;;;;;;25.95;49.36;100942.81;5029912;28;20132;-69
2023/06/20 10:27:52;;;;;;;5.25;2.92;;;;;;;25.96;49.48;100935.63;5031034;28;20361;-69
2023/06/20 10:30:49;;;;;;;6.73;3.00;;;;;;;25.95;49.65;100934.81;5029722;28;20048;-68
2023/06/20 10:33:27;;;;;;;4.57;2.63;;;;;;;25.98;49.23;100926.50;5026894;28;20427;-67
2023/06/20 10:35:56;;;;;;;6.05;3.10;;;;;;;25.96;49.09;100922.28;5030557;28;20041;-67
2023/06/20 10:38:22;;;;;;;6.18;2.83;;;;;;;25.97;49.07;100914.13;5030613;28;20025;-67
2023/06/20 10:40:47;;;;;;;5.85;2.63;;;;;;;25.97;48.91;100916.81;5028238;28;20045;-70
2023/06/20 10:43:22;;;;;;;4.47;2.63;;;;;;;25.94;49.16;100921.63;5028672;28;20071;-68
2023/06/20 10:45:59;;;;;;;4.78;2.72;;;;;;;25.94;49.15;100909.13;5030947;28;20545;-67
2023/06/20 10:48:26;;;;;;;4.47;2.65;;;;;;;25.97;49.23;100915.97;5030479;28;20065;-69
2023/06/20 10:51:01;;;;;;;7.57;3.20;;;;;;;25.96;49.39;100923.13;5024776;28;20029;-66
2023/06/20 10:53:29;;;;;;;6.53;2.63;;;;;;;25.99;49.29;100921.97;5030406;28;20122;-66
2023/06/20 10:55:54;;;;;;;4.85;2.75;;;;;;;26.02;49.10;100914.44;5029421;28;20033;-66
2023/06/20 10:58:20;;;;;;;5.53;2.80;;;;;;;26.02;48.92;100909.09;5029852;28;20043;-66
2023/06/20 11:00:45;;;;;;;4.57;2.80;;;;;;;26.02;48.89;100905.59;5030873;28;20124;-67
2023/06/20 11:03:11;;;;;;;4.47;2.80;;;;;;;26.02;48.63;100900.25;5030890;28;20521;-67
2023/06/20 11:05:36;;;;;;;4.10;2.58;;;;;;;26.02;48.96;100887.72;5030161;28;20047;-66
2023/06/20 11:08:05;;;;;;;4.25;2.50;;;;;;;26.02;48.47;100900.25;5029876;28;20102;-67
2023/06/20 11:10:35;;;;;;;3.90;2.50;;;;;;;25.99;48.80;100890.75;5031014;28;20037;-67
2023/06/20 11:13:05;;;;;;;3.72;2.30;;;;;;;25.99;48.96;100890.75;5030764;28;20033;-66
2023/06/20 11:15:33;;;;;;;4.80;2.38;;;;;;;26.01;48.98;100890.56;5029515;28;20694;-67
2023/06/20 11:18:04;;;;;;;3.78;2.20;;;;;;;25.98;49.14;100882.94;5029514;28;20373;-67
2023/06/20 11:20:35;;;;;;;4.70;2.72;;;;;;;26.03;49.06;100897.41;5030096;28;20646;-67
2023/06/20 11:23:04;;;;;;;5.80;2.42;;;;;;;26.03;48.94;100883.25;5033477;28;20499;-65
2023/06/20 11:25:32;;;;;;;5.80;2.50;;;;;;;26.04;49.12;100876.88;5033399;28;20033;-67